Time;durP1;ratioP1;P1;durP2;ratioP2;P2;SDS_P1;SDS_P2;PMS_P1;PMS_P2;Temp;Humidity;BMP_temperature;BMP_pressure;BME280_temperature;BME280_humidity;BME280_pressure;Samples;Min_cycle;Max_cycle;Signal;HPM_P1;HPM_P2
2022/07/06 04:01:14;;;;;;;3.60;2.13;;;15.20;99.90;;;;;;5571541;23;20544;-68
2022/07/06 04:03:40;;;;;;;1.73;1.60;;;15.30;99.90;;;;;;4969590;28;20474;-68
2022/07/06 04:06:07;;;;;;;2.87;2.00;;;15.30;99.90;;;;;;4961044;28;20465;-68
2022/07/06 04:08:34;;;;;;;4.17;2.13;;;15.30;99.90;;;;;;4971799;28;20931;-68
2022/07/06 04:11:00;;;;;;;5.10;2.37;;;15.30;99.90;;;;;;4971876;28;20482;-68
2022/07/06 04:13:27;;;;;;;1.67;1.43;;;15.30;99.90;;;;;;4984812;23;20452;-66
2022/07/06 04:15:54;;;;;;;3.73;2.20;;;15.30;99.90;;;;;;4971607;28;20459;-66
2022/07/06 04:18:22;;;;;;;1.90;1.80;;;15.30;99.90;;;;;;4971036;28;20494;-67
2022/07/06 04:20:48;;;;;;;3.07;2.20;;;15.40;99.90;;;;;;4971454;28;20578;-68
2022/07/06 04:23:15;;;;;;;2.33;1.90;;;15.30;99.90;;;;;;4970959;28;20463;-67
2022/07/06 04:25:42;;;;;;;3.23;1.93;;;15.40;99.90;;;;;;4951041;28;20473;-66
2022/07/06 04:28:09;;;;;;;1.83;1.70;;;15.40;99.90;;;;;;4951717;28;20465;-67
2022/07/06 04:30:36;;;;;;;1.90;1.80;;;15.50;99.90;;;;;;4959112;28;20464;-66
2022/07/06 04:33:02;;;;;;;2.13;1.93;;;15.50;99.90;;;;;;4971392;28;20471;-67
2022/07/06 04:35:30;;;;;;;2.50;2.03;;;15.50;99.90;;;;;;4956059;28;20487;-67
2022/07/06 04:37:57;;;;;;;3.90;1.70;;;15.50;99.90;;;;;;4951746;29;20461;-67
2022/07/06 04:40:24;;;;;;;1.80;1.70;;;15.60;99.90;;;;;;4960283;28;20999;-67
2022/07/06 04:42:51;;;;;;;1.77;1.67;;;15.60;99.90;;;;;;4965229;28;20460;-67
2022/07/06 04:45:17;;;;;;;4.00;2.10;;;15.70;99.90;;;;;;4959833;28;20490;-67
2022/07/06 04:47:44;;;;;;;2.20;2.00;;;15.70;99.90;;;;;;4954909;28;20467;-67
2022/07/06 04:50:12;;;;;;;2.50;1.77;;;15.70;99.90;;;;;;4957437;28;20459;-67
2022/07/06 04:52:40;;;;;;;1.50;1.33;;;15.80;99.90;;;;;;4956942;28;20465;-67
2022/07/06 04:55:08;;;;;;;2.50;2.17;;;15.80;99.90;;;;;;4956430;28;20480;-67
2022/07/06 04:57:35;;;;;;;3.33;1.70;;;15.80;99.90;;;;;;4957606;28;20464;-67
2022/07/06 05:00:03;;;;;;;1.67;1.53;;;15.80;99.90;;;;;;4952326;28;20480;-67
2022/07/06 05:02:29;;;;;;;2.13;1.77;;;15.90;99.90;;;;;;4953138;28;20494;-67
2022/07/06 05:04:56;;;;;;;2.23;2.13;;;15.90;99.90;;;;;;4958352;28;20496;-67
2022/07/06 05:07:27;;;;;;;6.70;1.70;;;15.90;99.90;;;;;;4965594;28;20478;-67
2022/07/06 05:09:56;;;;;;;3.33;1.97;;;16.00;99.90;;;;;;4960906;28;20464;-67
2022/07/06 05:12:23;;;;;;;3.20;1.60;;;16.10;99.90;;;;;;4967396;28;20462;-67
2022/07/06 05:14:50;;;;;;;2.40;1.77;;;16.00;99.90;;;;;;4961141;28;20534;-67
2022/07/06 05:17:16;;;;;;;2.47;1.50;;;16.10;99.90;;;;;;4953216;28;20464;-67
2022/07/06 05:19:43;;;;;;;7.37;1.90;;;16.10;99.90;;;;;;4954286;29;20465;-67
2022/07/06 05:22:10;;;;;;;2.47;1.30;;;16.10;99.90;;;;;;4955929;28;20485;-68
2022/07/06 05:24:36;;;;;;;1.90;1.90;;;16.10;99.90;;;;;;4955504;29;20485;-66
2022/07/06 05:27:05;;;;;;;1.63;1.40;;;16.10;99.90;;;;;;4968239;28;20483;-67
2022/07/06 05:29:32;;;;;;;1.63;1.40;;;15.90;99.90;;;;;;4969835;28;20479;-68
2022/07/06 05:31:58;;;;;;;1.73;1.53;;;15.70;99.90;;;;;;4969822;28;20466;-68
2022/07/06 05:34:25;;;;;;;1.83;1.47;;;15.60;99.90;;;;;;4970282;28;20484;-68
2022/07/06 05:36:52;;;;;;;1.80;1.27;;;15.70;99.90;;;;;;4957076;28;20461;-67
2022/07/06 05:39:20;;;;;;;1.23;1.17;;;15.70;99.90;;;;;;4957498;28;20953;-66
2022/07/06 05:41:48;;;;;;;3.20;1.70;;;15.80;99.90;;;;;;4955874;28;20973;-68
2022/07/06 05:44:16;;;;;;;1.53;1.53;;;15.90;99.90;;;;;;4955501;28;20496;-65
2022/07/06 05:46:43;;;;;;;4.70;2.10;;;15.90;99.90;;;;;;4960341;29;20465;-66
2022/07/06 05:51:54;;;;;;;2.83;1.63;;;16.10;99.90;;;;;;4962291;28;20586;-66
2022/07/06 05:54:20;;;;;;;2.80;1.90;;;16.20;99.90;;;;;;4958054;28;20480;-69
2022/07/06 05:56:47;;;;;;;3.60;2.77;;;16.20;99.90;;;;;;4956721;29;20472;-69
2022/07/06 05:59:14;;;;;;;4.00;2.23;;;16.20;99.90;;;;;;4955735;28;20476;-68
2022/07/06 06:01:42;;;;;;;1.93;1.83;;;16.20;99.90;;;;;;4948966;28;21016;-68
2022/07/06 06:04:08;;;;;;;2.00;1.70;;;16.30;99.90;;;;;;4954884;28;20496;-68
2022/07/06 06:06:35;;;;;;;3.37;1.90;;;16.30;99.90;;;;;;4956720;28;20464;-68
2022/07/06 06:09:02;;;;;;;2.00;1.97;;;16.40;99.90;;;;;;4955345;28;20932;-69
2022/07/06 06:11:28;;;;;;;1.43;1.43;;;16.50;99.90;;;;;;4971555;28;20898;-69
2022/07/06 06:13:55;;;;;;;1.50;1.40;;;16.60;99.90;;;;;;4962467;28;20483;-69
2022/07/06 06:16:22;;;;;;;3.13;1.50;;;16.70;99.90;;;;;;4977201;28;20476;-66
2022/07/06 06:18:50;;;;;;;1.83;1.47;;;16.70;99.90;;;;;;4963008;28;20555;-67
2022/07/06 06:21:16;;;;;;;1.90;1.80;;;16.80;99.90;;;;;;4958086;29;20485;-66
2022/07/06 06:23:43;;;;;;;1.23;1.10;;;16.80;99.90;;;;;;4955033;28;20500;-66
2022/07/06 06:26:11;;;;;;;5.17;1.60;;;17.00;99.90;;;;;;4953666;28;20473;-67
2022/07/06 06:28:37;;;;;;;1.37;1.37;;;17.00;99.90;;;;;;4952975;29;20493;-66
2022/07/06 06:31:04;;;;;;;1.97;1.27;;;17.10;99.90;;;;;;4950806;28;20480;-66
2022/07/06 06:33:31;;;;;;;1.63;1.40;;;17.20;99.90;;;;;;4952257;28;20499;-65
2022/07/06 06:35:59;;;;;;;2.67;1.10;;;17.30;99.90;;;;;;4954453;29;20465;-66
2022/07/06 06:38:27;;;;;;;1.00;1.00;;;17.30;99.90;;;;;;4969702;28;20839;-66
2022/07/06 06:40:54;;;;;;;1.27;1.20;;;17.30;99.90;;;;;;4957118;28;21035;-66
2022/07/06 06:43:21;;;;;;;1.77;1.37;;;17.30;99.90;;;;;;4963229;28;20763;-67
2022/07/06 06:45:47;;;;;;;2.15;1.17;;;17.40;99.90;;;;;;4954400;28;21125;-66
2022/07/06 06:48:14;;;;;;;0.80;0.80;;;17.50;99.90;;;;;;4955283;28;20205;-66
2022/07/06 06:50:41;;;;;;;1.00;1.00;;;17.50;99.90;;;;;;4959100;28;20486;-65
2022/07/06 06:53:09;;;;;;;1.13;0.80;;;17.60;99.90;;;;;;4962950;28;20470;-67
2022/07/06 06:55:36;;;;;;;1.60;1.50;;;17.60;99.90;;;;;;4953025;28;20596;-66
2022/07/06 06:58:02;;;;;;;1.33;1.23;;;17.70;99.90;;;;;;4953109;28;20464;-65
2022/07/06 07:00:29;;;;;;;1.10;1.10;;;17.90;99.90;;;;;;4963691;28;20460;-66
2022/07/06 07:02:56;;;;;;;2.43;1.10;;;17.90;99.90;;;;;;4959959;28;20496;-66
2022/07/06 07:05:22;;;;;;;1.23;1.00;;;18.10;99.90;;;;;;4962174;28;20483;-66
2022/07/06 07:07:50;;;;;;;1.73;1.63;;;18.20;99.90;;;;;;4971592;28;20471;-66
2022/07/06 07:10:18;;;;;;;1.23;0.90;;;18.20;99.90;;;;;;4954957;28;20461;-66
2022/07/06 07:12:45;;;;;;;0.50;0.50;;;18.40;99.90;;;;;;4953743;29;20461;-66
2022/07/06 07:15:12;;;;;;;0.80;0.60;;;18.50;99.90;;;;;;4958907;28;20483;-66
2022/07/06 07:17:39;;;;;;;0.60;0.60;;;18.60;99.90;;;;;;4973161;28;20534;-66
2022/07/06 07:20:07;;;;;;;1.20;0.70;;;18.50;99.90;;;;;;4953361;28;20471;-67
2022/07/06 07:22:34;;;;;;;0.93;0.83;;;18.50;99.90;;;;;;4953716;28;20493;-66
2022/07/06 07:25:00;;;;;;;1.33;0.60;;;18.40;99.90;;;;;;4951429;28;20508;-67
2022/07/06 07:27:29;;;;;;;0.80;0.80;;;18.20;99.90;;;;;;4955302;28;20476;-66
2022/07/06 07:29:55;;;;;;;2.40;0.73;;;18.10;99.90;;;;;;4951082;28;20814;-66
2022/07/06 07:32:22;;;;;;;1.90;1.00;;;18.10;99.90;;;;;;4953435;29;20457;-65
2022/07/06 07:34:49;;;;;;;0.80;0.70;;;18.10;99.90;;;;;;4952202;28;20885;-66
2022/07/06 07:37:15;;;;;;;0.80;0.80;;;18.10;99.90;;;;;;4964244;28;20456;-66
2022/07/06 07:39:42;;;;;;;1.33;1.17;;;18.00;99.90;;;;;;4952574;29;20457;-66
2022/07/06 07:42:09;;;;;;;1.60;0.80;;;18.00;99.90;;;;;;4953478;28;20794;-67
2022/07/06 07:44:38;;;;;;;2.23;1.03;;;17.90;99.90;;;;;;4967231;28;20484;-67
2022/07/06 07:47:05;;;;;;;0.63;0.63;;;18.00;99.90;;;;;;4953530;29;20492;-67
2022/07/06 07:49:32;;;;;;;0.80;0.80;;;18.20;99.90;;;;;;4966568;28;20788;-67
2022/07/06 07:51:58;;;;;;;0.70;0.70;;;18.40;99.90;;;;;;4967078;28;20456;-67
2022/07/06 07:54:25;;;;;;;0.77;0.77;;;18.40;99.90;;;;;;4952702;28;20500;-67
2022/07/06 07:56:52;;;;;;;2.20;0.90;;;18.50;99.90;;;;;;4953113;29;20813;-67
2022/07/06 07:59:18;;;;;;;1.63;0.67;;;18.60;99.90;;;;;;4961138;28;20468;-67
2022/07/06 08:01:46;;;;;;;1.03;1.00;;;18.80;99.90;;;;;;4969773;28;20514;-66
2022/07/06 08:04:13;;;;;;;1.07;0.70;;;19.00;99.90;;;;;;4953740;28;20485;-66
2022/07/06 08:06:40;;;;;;;2.23;1.00;;;19.00;99.90;;;;;;4952337;28;20495;-67
2022/07/06 08:09:07;;;;;;;4.13;0.97;;;19.10;99.90;;;;;;4956060;28;20464;-66
2022/07/06 08:11:34;;;;;;;0.70;0.70;;;19.30;99.90;;;;;;4952890;29;20621;-67
2022/07/06 08:14:01;;;;;;;1.40;0.83;;;19.40;99.90;;;;;;4960100;28;21012;-67
2022/07/06 08:16:27;;;;;;;0.80;0.80;;;19.60;99.90;;;;;;4954516;28;20468;-67
2022/07/06 08:18:55;;;;;;;1.97;0.80;;;20.00;99.90;;;;;;4958559;28;20463;-67
2022/07/06 08:21:22;;;;;;;5.00;1.20;;;20.30;99.90;;;;;;4971398;28;20821;-67
2022/07/06 08:23:49;;;;;;;1.57;0.70;;;20.60;99.90;;;;;;4966571;28;20510;-65
2022/07/06 08:26:16;;;;;;;4.13;0.80;;;20.90;99.90;;;;;;4962810;28;20500;-65
2022/07/06 08:28:42;;;;;;;0.90;0.90;;;20.90;99.90;;;;;;4953748;28;20469;-66
2022/07/06 08:31:09;;;;;;;2.10;1.47;;;20.90;99.90;;;;;;4952449;28;20468;-66
2022/07/06 08:33:36;;;;;;;0.67;0.67;;;20.60;99.90;;;;;;4952102;28;20482;-65
2022/07/06 08:36:04;;;;;;;2.30;0.83;;;20.30;99.90;;;;;;4950625;29;20494;-65
2022/07/06 08:38:31;;;;;;;0.70;0.70;;;20.00;99.90;;;;;;4966384;28;20459;-65
2022/07/06 08:40:58;;;;;;;2.60;0.70;;;19.60;99.90;;;;;;4967274;28;20472;-67
2022/07/06 08:43:25;;;;;;;1.50;1.00;;;19.40;99.90;;;;;;4954273;28;20503;-65
2022/07/06 08:45:54;;;;;;;1.53;0.80;;;19.20;99.90;;;;;;4952207;28;20495;-65
2022/07/06 08:48:24;;;;;;;1.70;1.70;;;19.00;99.90;;;;;;4963239;28;20486;-65
2022/07/06 08:50:52;;;;;;;2.20;0.80;;;19.00;99.90;;;;;;4954999;28;20845;-65
2022/07/06 08:53:21;;;;;;;0.87;0.83;;;19.00;99.90;;;;;;4954120;28;20785;-67
2022/07/06 08:55:50;;;;;;;0.77;0.77;;;19.00;99.90;;;;;;4952193;28;20465;-67
2022/07/06 08:58:17;;;;;;;0.87;0.73;;;18.90;99.90;;;;;;4949960;28;20549;-67
2022/07/06 09:00:44;;;;;;;3.60;0.80;;;18.90;99.90;;;;;;4951863;29;20922;-67
2022/07/06 09:03:13;;;;;;;0.83;0.50;;;18.70;99.90;;;;;;4952286;28;20946;-68
2022/07/06 09:05:41;;;;;;;2.30;1.10;;;18.70;99.90;;;;;;4952079;28;20471;-67
2022/07/06 09:08:08;;;;;;;1.93;0.60;;;18.60;99.90;;;;;;4962137;28;20464;-66
2022/07/06 09:10:36;;;;;;;2.57;0.53;;;18.50;99.90;;;;;;4951053;29;20556;-68
2022/07/06 09:13:04;;;;;;;0.70;0.70;;;18.40;99.90;;;;;;4955196;28;20949;-67
2022/07/06 09:15:31;;;;;;;1.60;0.90;;;18.40;99.90;;;;;;4951990;28;20564;-66
2022/07/06 09:17:58;;;;;;;1.13;0.80;;;18.40;99.90;;;;;;4950925;28;20835;-67
2022/07/06 09:20:25;;;;;;;2.63;0.90;;;18.30;99.90;;;;;;4952238;28;20570;-67
2022/07/06 09:22:58;;;;;;;1.07;1.07;;;18.20;99.90;;;;;;4959092;28;20492;-67
2022/07/06 09:25:26;;;;;;;1.20;1.10;;;18.20;99.90;;;;;;4949596;28;20517;-66
2022/07/06 09:27:55;;;;;;;2.50;0.80;;;18.20;99.90;;;;;;4953459;28;20583;-66
2022/07/06 09:30:23;;;;;;;3.13;2.80;;;18.00;99.90;;;;;;4951843;29;20534;-66
2022/07/06 09:32:52;;;;;;;7.93;6.60;;;17.80;99.90;;;;;;4952230;28;20962;-67
2022/07/06 09:35:24;;;;;;;2.73;1.73;;;17.50;99.90;;;;;;4933026;29;20496;-67
2022/07/06 09:38:04;;;;;;;2.43;2.30;;;17.20;99.90;;;;;;4951729;28;20540;-65
2022/07/06 09:40:32;;;;;;;0.80;0.47;;;16.70;99.90;;;;;;4948934;29;20468;-66
2022/07/06 09:43:19;;;;;;;0.97;0.40;;;16.40;99.90;;;;;;4955022;28;20516;-66
2022/07/06 09:45:48;;;;;;;0.50;0.50;;;16.20;99.90;;;;;;4940035;29;20464;-66
2022/07/06 09:48:18;;;;;;;1.17;1.17;;;16.00;99.90;;;;;;4951592;29;20469;-65
2022/07/06 09:50:47;;;;;;;0.70;0.70;;;16.00;99.90;;;;;;4951558;28;20481;-65
2022/07/06 09:53:14;;;;;;;1.13;0.70;;;15.90;99.90;;;;;;4961215;28;20459;-66
2022/07/06 09:55:45;;;;;;;0.73;0.73;;;15.90;99.90;;;;;;4954062;29;20460;-66
2022/07/06 09:58:11;;;;;;;0.60;0.60;;;16.00;99.90;;;;;;4958954;28;20464;-65
2022/07/06 10:00:39;;;;;;;0.80;0.50;;;16.20;99.90;;;;;;4955073;29;20807;-66
2022/07/06 10:03:08;;;;;;;0.70;0.70;;;16.40;99.90;;;;;;4966033;28;20483;-66
2022/07/06 10:05:37;;;;;;;1.20;1.10;;;16.70;99.90;;;;;;4971102;28;20480;-66
2022/07/06 10:08:06;;;;;;;3.40;3.10;;;16.90;99.90;;;;;;4966670;28;20794;-66
2022/07/06 10:10:33;;;;;;;2.40;2.30;;;17.10;99.90;;;;;;4971915;28;20860;-66
2022/07/06 10:13:00;;;;;;;4.60;3.90;;;17.30;99.90;;;;;;4953095;28;20472;-65
2022/07/06 10:15:31;;;;;;;7.70;3.87;;;17.60;99.90;;;;;;4954165;29;20510;-66
2022/07/06 10:18:01;;;;;;;10.00;5.50;;;17.60;99.90;;;;;;4963187;28;20621;-66
2022/07/06 10:20:31;;;;;;;13.57;7.37;;;17.80;99.90;;;;;;4972893;28;20463;-66
2022/07/06 10:23:00;;;;;;;1.17;1.07;;;17.80;99.90;;;;;;4956184;28;20560;-66
2022/07/06 10:25:27;;;;;;;6.13;0.60;;;17.90;99.90;;;;;;4954981;29;20504;-66
2022/07/06 10:27:55;;;;;;;1.13;0.60;;;18.10;99.90;;;;;;4953280;28;20464;-66
2022/07/06 10:30:23;;;;;;;0.40;0.40;;;18.20;99.90;;;;;;4954626;29;20468;-66
2022/07/06 10:32:52;;;;;;;2.90;0.50;;;18.40;99.90;;;;;;4959542;28;20452;-66
2022/07/06 10:35:20;;;;;;;0.90;0.63;;;18.40;99.90;;;;;;4960207;28;20481;-66
2022/07/06 10:38:04;;;;;;;2.30;0.60;;;18.30;99.90;;;;;;4958704;28;20459;-66
2022/07/06 10:43:17;;;;;;;1.03;0.80;;;18.00;99.90;;;;;;4954820;28;20491;-66
2022/07/06 10:45:52;;;;;;;0.40;0.40;;;18.20;99.90;;;;;;4954690;28;20473;-67
2022/07/06 10:48:20;;;;;;;0.53;0.53;;;18.30;99.90;;;;;;4953910;28;20887;-66
2022/07/06 10:50:51;;;;;;;3.33;0.50;;;18.30;99.90;;;;;;4967265;28;20467;-66
2022/07/06 10:53:18;;;;;;;0.83;0.83;;;18.10;99.90;;;;;;4968940;28;20500;-66
2022/07/06 10:55:50;;;;;;;0.50;0.50;;;18.00;99.90;;;;;;4954397;28;20829;-66
2022/07/06 10:58:35;;;;;;;0.70;0.43;;;18.00;99.90;;;;;;4951528;28;20550;-65
2022/07/06 11:01:01;;;;;;;1.50;0.47;;;17.90;99.90;;;;;;4948804;28;20468;-66
2022/07/06 11:03:42;;;;;;;0.70;0.70;;;17.70;99.90;;;;;;4952247;28;20484;-66
2022/07/06 11:06:13;;;;;;;3.20;0.50;;;17.50;99.90;;;;;;4960853;28;20480;-67
2022/07/06 11:08:58;;;;;;;5.20;0.97;;;17.60;99.90;;;;;;4953700;29;20487;-67
2022/07/06 11:11:27;;;;;;;1.83;0.70;;;17.80;99.90;;;;;;4970307;28;20968;-67
2022/07/06 11:14:01;;;;;;;0.73;0.73;;;18.00;99.90;;;;;;4952618;29;20551;-67
2022/07/06 11:16:33;;;;;;;0.37;0.37;;;18.20;99.90;;;;;;4953999;28;20457;-67
2022/07/06 11:19:02;;;;;;;1.50;0.30;;;18.40;99.90;;;;;;4953658;29;20804;-67
2022/07/06 11:21:38;;;;;;;0.90;0.30;;;18.70;99.90;;;;;;4970954;28;20467;-67
2022/07/06 11:24:06;;;;;;;0.67;0.30;;;18.90;99.90;;;;;;4953386;29;20503;-67
2022/07/06 11:26:35;;;;;;;0.33;0.33;;;19.10;99.90;;;;;;4971128;28;20500;-66
2022/07/06 11:29:04;;;;;;;0.50;0.47;;;19.30;99.90;;;;;;4953016;29;20471;-67
2022/07/06 11:31:31;;;;;;;0.50;0.50;;;19.40;99.90;;;;;;4952293;28;20488;-67
2022/07/06 11:33:57;;;;;;;0.40;0.20;;;19.60;99.90;;;;;;4952625;28;20480;-67
2022/07/06 11:36:24;;;;;;;0.50;0.30;;;19.80;99.90;;;;;;4955440;28;20472;-67
2022/07/06 11:38:52;;;;;;;0.60;0.50;;;20.00;99.90;;;;;;4959277;28;20499;-67
2022/07/06 11:41:19;;;;;;;0.67;0.30;;;20.20;99.90;;;;;;4949969;29;20468;-67
2022/07/06 11:43:47;;;;;;;0.53;0.53;;;20.20;99.90;;;;;;4952032;28;20499;-67
2022/07/06 11:46:21;;;;;;;0.50;0.50;;;20.20;99.90;;;;;;4953400;29;20552;-67
2022/07/06 11:48:48;;;;;;;0.47;0.47;;;20.20;99.90;;;;;;4952998;28;20484;-67
2022/07/06 11:51:16;;;;;;;5.93;0.80;;;20.00;99.90;;;;;;4952999;29;20476;-68
2022/07/06 11:53:46;;;;;;;0.70;0.70;;;19.90;99.90;;;;;;4951609;28;20484;-67
2022/07/06 11:56:15;;;;;;;0.67;0.30;;;19.90;99.90;;;;;;4956299;28;20461;-66
2022/07/06 11:58:46;;;;;;;1.60;0.50;;;19.80;99.90;;;;;;4952699;28;20512;-67
2022/07/06 12:01:13;;;;;;;1.13;0.93;;;19.50;99.90;;;;;;4939478;29;20961;-67
2022/07/06 12:03:40;;;;;;;1.17;0.50;;;19.50;99.90;;;;;;4961994;28;20499;-66
2022/07/06 12:06:13;;;;;;;1.00;0.80;;;19.40;99.90;;;;;;4953419;28;20465;-67
2022/07/06 12:08:44;;;;;;;1.17;0.70;;;19.50;99.90;;;;;;4951424;28;20473;-67
2022/07/06 12:11:11;;;;;;;0.57;0.57;;;19.40;99.90;;;;;;4950769;28;20468;-67
2022/07/06 12:13:42;;;;;;;1.80;0.53;;;19.50;99.90;;;;;;4953886;28;20497;-67
2022/07/06 12:16:13;;;;;;;0.40;0.40;;;19.50;99.90;;;;;;4948406;29;20489;-67
2022/07/06 12:18:40;;;;;;;0.57;0.57;;;19.70;99.90;;;;;;4952483;28;20471;-67
2022/07/06 12:21:09;;;;;;;0.63;0.63;;;19.70;99.90;;;;;;4953118;28;20476;-67
2022/07/06 12:23:43;;;;;;;1.37;0.50;;;19.70;99.90;;;;;;4953430;28;20698;-66
2022/07/06 12:26:10;;;;;;;1.27;0.57;;;19.80;99.90;;;;;;4951878;29;20473;-67
2022/07/06 12:28:39;;;;;;;1.50;0.80;;;19.70;99.90;;;;;;4952388;28;20465;-67
2022/07/06 12:31:06;;;;;;;1.17;0.50;;;19.80;99.90;;;;;;4952589;29;20789;-67
2022/07/06 12:33:33;;;;;;;1.80;0.73;;;19.90;99.90;;;;;;4954959;28;20996;-67
2022/07/06 12:36:10;;;;;;;1.60;0.50;;;20.00;99.90;;;;;;4966071;28;20469;-66
2022/07/06 12:38:44;;;;;;;3.40;0.70;;;20.10;99.90;;;;;;4956052;28;20507;-68
2022/07/06 12:41:11;;;;;;;1.10;1.10;;;20.30;99.90;;;;;;4965481;28;20476;-66
2022/07/06 12:43:40;;;;;;;0.67;0.50;;;20.50;99.90;;;;;;4952136;28;21032;-65
2022/07/06 12:46:29;;;;;;;1.40;0.77;;;20.50;99.90;;;;;;4952652;28;20914;-67
2022/07/06 12:48:57;;;;;;;1.13;0.93;;;20.50;99.90;;;;;;4962594;28;20464;-66
2022/07/06 12:51:23;;;;;;;0.90;0.77;;;20.70;99.90;;;;;;4956960;28;20472;-68
2022/07/06 12:53:51;;;;;;;1.90;0.50;;;20.60;99.90;;;;;;4951932;28;20612;-66
2022/07/06 12:56:18;;;;;;;0.50;0.50;;;20.70;99.90;;;;;;4952257;28;20547;-67
2022/07/06 12:59:01;;;;;;;0.77;0.43;;;20.40;99.90;;;;;;4960721;28;20461;-67
2022/07/06 13:01:28;;;;;;;0.70;0.53;;;20.20;99.90;;;;;;4952191;28;20976;-67
2022/07/06 13:03:56;;;;;;;0.77;0.30;;;20.10;99.90;;;;;;4969721;28;20488;-67
2022/07/06 13:06:33;;;;;;;1.30;0.40;;;20.20;99.90;;;;;;4955855;28;20560;-67
2022/07/06 13:09:00;;;;;;;1.13;0.70;;;20.40;99.90;;;;;;4952365;29;20479;-67
2022/07/06 13:11:27;;;;;;;0.70;0.43;;;20.70;99.90;;;;;;4952551;28;20519;-67
2022/07/06 13:13:54;;;;;;;0.90;0.70;;;20.90;99.90;;;;;;4965958;28;20506;-67
2022/07/06 13:16:24;;;;;;;2.10;0.57;;;21.30;99.90;;;;;;4970843;28;20482;-66
2022/07/06 13:18:50;;;;;;;0.53;0.53;;;21.30;99.90;;;;;;4952010;29;20464;-67
2022/07/06 13:21:17;;;;;;;0.90;0.60;;;21.20;99.90;;;;;;4959848;28;20991;-67
2022/07/06 13:23:44;;;;;;;1.37;0.60;;;21.30;99.90;;;;;;4951551;28;20492;-66
2022/07/06 13:26:10;;;;;;;0.43;0.43;;;21.70;99.90;;;;;;4961857;28;20471;-67
2022/07/06 13:28:37;;;;;;;0.67;0.67;;;22.00;99.90;;;;;;4951348;28;20837;-67
2022/07/06 13:31:04;;;;;;;0.60;0.60;;;22.00;99.90;;;;;;4959318;28;20812;-67
2022/07/06 13:33:32;;;;;;;0.53;0.53;;;21.90;99.90;;;;;;4957502;28;20483;-67
2022/07/06 13:35:58;;;;;;;0.53;0.53;;;21.80;99.90;;;;;;4975603;28;20478;-67
2022/07/06 13:38:25;;;;;;;5.27;1.40;;;21.80;99.90;;;;;;4957582;28;20469;-67
2022/07/06 13:40:52;;;;;;;3.50;0.90;;;22.00;99.90;;;;;;4956021;29;20464;-67
2022/07/06 13:43:19;;;;;;;2.83;1.10;;;21.80;99.90;;;;;;4950927;28;20596;-67
2022/07/06 13:45:46;;;;;;;3.83;0.80;;;21.70;99.90;;;;;;4955960;28;20464;-67
2022/07/06 13:48:13;;;;;;;4.07;1.00;;;21.50;99.90;;;;;;4955643;29;20464;-67
2022/07/06 13:50:41;;;;;;;5.80;1.20;;;21.50;99.90;;;;;;4955795;29;20576;-67
2022/07/06 13:53:08;;;;;;;7.37;1.80;;;21.40;99.90;;;;;;4963279;28;20486;-68
2022/07/06 13:55:36;;;;;;;7.47;1.00;;;21.30;99.90;;;;;;4957388;28;20493;-66
2022/07/06 13:58:02;;;;;;;5.80;1.00;;;21.20;99.90;;;;;;4961673;28;20467;-66
2022/07/06 14:00:29;;;;;;;6.73;1.23;;;21.20;99.90;;;;;;4962211;28;20465;-67
2022/07/06 14:02:56;;;;;;;4.00;1.20;;;21.20;99.90;;;;;;4959790;28;20470;-66
2022/07/06 14:05:22;;;;;;;1.60;0.90;;;21.30;99.90;;;;;;4972578;28;20490;-66
2022/07/06 14:07:50;;;;;;;3.77;0.70;;;21.30;99.90;;;;;;4967270;28;20976;-66
2022/07/06 14:10:17;;;;;;;2.30;0.43;;;21.40;99.90;;;;;;4955103;28;20473;-68
2022/07/06 14:12:44;;;;;;;4.77;1.20;;;21.60;99.90;;;;;;4952665;28;20524;-65
2022/07/06 14:15:11;;;;;;;2.87;0.60;;;21.60;99.90;;;;;;4955061;29;20496;-67
2022/07/06 14:17:37;;;;;;;3.07;0.87;;;21.80;99.90;;;;;;4956118;28;20487;-67
2022/07/06 14:20:05;;;;;;;0.30;0.30;;;21.90;99.90;;;;;;4955041;29;20465;-66
2022/07/06 14:22:32;;;;;;;2.00;0.50;;;21.90;99.90;;;;;;4956674;28;20551;-67
2022/07/06 14:25:00;;;;;;;0.60;0.60;;;22.00;99.90;;;;;;4954246;29;20489;-68
2022/07/06 14:27:27;;;;;;;1.97;0.67;;;21.90;99.90;;;;;;4955937;28;20479;-67
2022/07/06 14:29:53;;;;;;;0.67;0.67;;;21.90;99.90;;;;;;4955178;29;20464;-68
2022/07/06 14:32:20;;;;;;;0.53;0.53;;;21.80;99.90;;;;;;4955770;28;20982;-67
2022/07/06 14:34:47;;;;;;;1.97;0.90;;;21.70;99.90;;;;;;4954064;28;20491;-66
2022/07/06 14:37:13;;;;;;;0.57;0.57;;;21.50;99.90;;;;;;4962397;28;20460;-67
2022/07/06 14:39:40;;;;;;;2.63;0.87;;;21.40;99.90;;;;;;4954909;29;20977;-66
2022/07/06 14:42:09;;;;;;;0.63;0.60;;;21.30;99.90;;;;;;4969197;28;20830;-67
2022/07/06 14:44:36;;;;;;;4.27;1.20;;;21.20;99.90;;;;;;4956289;28;20998;-66
2022/07/06 14:47:03;;;;;;;0.40;0.40;;;21.40;99.90;;;;;;4954656;28;20824;-68
2022/07/06 14:49:30;;;;;;;3.50;0.87;;;21.60;99.90;;;;;;4954717;29;21032;-68
2022/07/06 14:51:57;;;;;;;8.10;1.20;;;21.90;99.90;;;;;;4955350;28;20471;-67
2022/07/06 14:54:24;;;;;;;7.30;1.27;;;22.00;99.90;;;;;;4954680;28;20958;-67
2022/07/06 14:56:51;;;;;;;5.07;1.10;;;21.90;99.90;;;;;;4964651;28;21048;-67
2022/07/06 14:59:19;;;;;;;4.00;0.50;;;21.70;99.90;;;;;;4969003;28;20991;-66
2022/07/06 15:01:46;;;;;;;1.03;0.70;;;21.70;99.90;;;;;;4960150;28;20523;-66
2022/07/06 15:04:13;;;;;;;2.10;0.50;;;21.60;99.90;;;;;;4953178;28;20855;-67
2022/07/06 15:06:40;;;;;;;1.70;0.67;;;21.40;99.90;;;;;;4959631;28;20460;-67
2022/07/06 15:09:06;;;;;;;0.50;0.50;;;21.40;99.90;;;;;;4954474;29;20589;-67
2022/07/06 15:11:33;;;;;;;5.97;0.73;;;21.50;99.90;;;;;;4953232;28;20473;-67
2022/07/06 15:14:00;;;;;;;1.07;0.57;;;21.60;99.90;;;;;;4953855;29;20828;-67
2022/07/06 15:16:29;;;;;;;0.70;0.50;;;21.60;99.90;;;;;;4956181;28;20465;-67
2022/07/06 15:18:55;;;;;;;0.57;0.57;;;21.50;99.90;;;;;;4953554;28;20465;-66
2022/07/06 15:21:22;;;;;;;4.27;0.50;;;21.40;99.90;;;;;;4954048;28;20469;-67
2022/07/06 15:23:49;;;;;;;0.70;0.70;;;21.30;99.90;;;;;;4954342;28;20492;-67
2022/07/06 15:26:15;;;;;;;0.70;0.40;;;21.40;99.90;;;;;;4968507;28;20460;-67
2022/07/06 15:28:42;;;;;;;0.50;0.50;;;21.40;99.90;;;;;;4956847;28;20464;-68
2022/07/06 15:31:09;;;;;;;0.33;0.33;;;21.40;99.90;;;;;;4954793;29;20472;-66
2022/07/06 15:33:37;;;;;;;2.23;0.70;;;21.30;99.90;;;;;;4958660;28;20488;-68
2022/07/06 15:36:04;;;;;;;1.37;0.87;;;21.30;99.90;;;;;;4953610;29;20988;-68
2022/07/06 15:38:32;;;;;;;6.87;0.87;;;21.20;99.90;;;;;;4955149;28;20797;-68
2022/07/06 15:41:01;;;;;;;1.93;0.57;;;21.20;99.90;;;;;;4956829;28;20812;-67
2022/07/06 15:43:29;;;;;;;0.90;0.50;;;21.30;99.90;;;;;;4947609;28;20471;-68
2022/07/06 15:45:57;;;;;;;1.23;0.53;;;21.50;99.90;;;;;;4954553;28;20845;-67
2022/07/06 15:48:24;;;;;;;0.50;0.50;;;21.70;99.90;;;;;;4963242;28;20493;-68
2022/07/06 15:50:52;;;;;;;3.47;0.50;;;21.90;99.90;;;;;;4967247;28;20468;-68
2022/07/06 15:53:19;;;;;;;0.70;0.70;;;22.10;99.90;;;;;;4953607;28;20472;-68
2022/07/06 15:55:46;;;;;;;0.40;0.40;;;21.90;99.90;;;;;;4953451;28;20467;-67
2022/07/06 15:58:13;;;;;;;1.10;0.73;;;21.70;99.90;;;;;;4954944;28;21177;-66
2022/07/06 16:00:40;;;;;;;0.50;0.50;;;21.30;99.80;;;;;;4953871;29;20469;-66
2022/07/06 16:03:06;;;;;;;0.97;0.60;;;21.20;99.90;;;;;;4970041;28;20470;-68
2022/07/06 16:05:33;;;;;;;0.60;0.60;;;21.10;99.90;;;;;;4966773;28;20487;-67
2022/07/06 16:08:01;;;;;;;0.67;0.50;;;21.00;99.90;;;;;;4959981;28;20476;-67
2022/07/06 16:10:29;;;;;;;0.70;0.60;;;20.90;99.90;;;;;;4955556;28;20956;-68
2022/07/06 16:12:56;;;;;;;1.27;0.63;;;20.80;99.90;;;;;;4959156;28;20523;-67
2022/07/06 16:15:23;;;;;;;0.60;0.60;;;20.80;99.90;;;;;;4952651;28;20496;-67
2022/07/06 16:17:50;;;;;;;0.70;0.70;;;20.70;99.90;;;;;;4955727;28;20465;-68
2022/07/06 16:20:16;;;;;;;2.23;0.60;;;20.70;99.90;;;;;;4953839;28;20468;-67
2022/07/06 16:22:44;;;;;;;1.50;0.70;;;20.90;99.90;;;;;;4956320;28;20460;-67
2022/07/06 16:25:12;;;;;;;0.77;0.77;;;21.10;99.90;;;;;;4973283;28;20503;-68
2022/07/06 16:27:40;;;;;;;0.87;0.47;;;21.40;99.90;;;;;;4970475;28;20452;-68
2022/07/06 16:30:09;;;;;;;0.43;0.40;;;21.60;99.90;;;;;;4963866;28;20807;-68
2022/07/06 16:32:35;;;;;;;0.70;0.40;;;21.70;99.90;;;;;;4950423;28;20808;-68
2022/07/06 16:35:02;;;;;;;1.00;0.60;;;21.70;99.90;;;;;;4951039;28;20830;-67
2022/07/06 16:37:29;;;;;;;5.70;1.13;;;21.70;99.90;;;;;;4952991;29;20468;-69
2022/07/06 16:39:56;;;;;;;1.50;0.77;;;21.90;99.90;;;;;;4954154;28;20560;-68
2022/07/06 16:42:24;;;;;;;0.63;0.50;;;21.90;99.90;;;;;;4953322;29;20464;-68
2022/07/06 16:44:50;;;;;;;1.70;0.70;;;21.70;99.90;;;;;;4958022;28;20488;-68
2022/07/06 16:47:17;;;;;;;0.40;0.40;;;21.70;99.90;;;;;;4953651;29;20491;-69
2022/07/06 16:49:44;;;;;;;0.47;0.47;;;21.80;99.90;;;;;;4950685;28;20475;-69
2022/07/06 16:52:11;;;;;;;0.90;0.67;;;21.80;99.90;;;;;;4953340;29;20469;-66
2022/07/06 16:54:37;;;;;;;1.87;0.40;;;21.80;99.90;;;;;;4952722;28;20919;-71
2022/07/06 16:57:04;;;;;;;0.60;0.50;;;21.70;99.90;;;;;;4953850;29;20472;-67